Time;durP1;ratioP1;P1;durP2;ratioP2;P2;SDS_P1;SDS_P2;PMS_P1;PMS_P2;Temp;Humidity;BMP_temperature;BMP_pressure;BME280_temperature;BME280_humidity;BME280_pressure;Samples;Min_cycle;Max_cycle;Signal;HPM_P1;HPM_P2
2023/09/01 00:00:41;;;;;;;0.10;0.10;;;;;;;21.80;56.65;101232.81;5050622;28;20116;-65
2023/09/01 00:03:10;;;;;;;0.10;0.10;;;;;;;21.80;56.81;101242.91;5050200;28;20067;-64
2023/09/01 00:05:36;;;;;;;0.10;0.10;;;;;;;21.72;57.81;101241.63;5051295;28;20082;-65
2023/09/01 00:08:02;;;;;;;0.10;0.10;;;;;;;21.67;57.82;101233.47;5051049;28;20038;-63
2023/09/01 00:10:27;;;;;;;0.10;0.10;;;;;;;21.78;57.49;101234.16;5050703;28;20049;-65
2023/09/01 00:12:53;;;;;;;0.10;0.10;;;;;;;21.93;56.26;101236.78;5044460;28;20079;-65
2023/09/01 00:15:18;;;;;;;0.20;0.20;;;;;;;21.80;56.23;101243.75;5050404;28;20029;-65
2023/09/01 00:17:44;;;;;;;0.10;0.10;;;;;;;21.70;56.88;101232.88;5050266;28;20025;-65
2023/09/01 00:20:10;;;;;;;0.10;0.10;;;;;;;21.72;57.19;101235.31;5050367;28;20037;-65
2023/09/01 00:22:35;;;;;;;0.10;0.10;;;;;;;21.66;57.25;101234.56;5050675;28;20120;-64
2023/09/01 00:25:00;;;;;;;0.10;0.10;;;;;;;21.70;57.10;101238.34;5050059;28;20087;-64
2023/09/01 00:27:26;;;;;;;0.10;0.10;;;;;;;21.46;58.04;101240.22;5056146;28;20072;-65
2023/09/01 00:29:51;;;;;;;0.10;0.10;;;;;;;21.70;57.50;101238.34;5064623;28;20029;-64
2023/09/01 00:32:16;;;;;;;0.10;0.10;;;;;;;21.93;56.31;101245.00;5050325;28;20047;-64
2023/09/01 00:34:42;;;;;;;0.05;0.05;;;;;;;21.65;56.73;101252.09;5050444;28;20021;-65
2023/09/01 00:37:07;;;;;;;0.10;0.10;;;;;;;21.61;56.87;101252.94;5050074;28;20044;-65
2023/09/01 00:39:33;;;;;;;0.10;0.10;;;;;;;21.46;56.84;101259.38;5065539;28;20037;-64
2023/09/01 00:41:59;;;;;;;0.10;0.10;;;;;;;21.55;57.23;101257.66;5049888;28;20057;-65
2023/09/01 00:44:24;;;;;;;0.10;0.10;;;;;;;21.53;57.70;101259.88;5049902;28;20025;-65
2023/09/01 00:46:50;;;;;;;0.10;0.10;;;;;;;21.50;57.28;101257.69;5050231;28;20029;-65
2023/09/01 00:49:18;;;;;;;0.20;0.20;;;;;;;21.55;57.16;101260.38;5049891;28;20513;-64
2023/09/01 00:51:46;;;;;;;0.13;0.13;;;;;;;21.61;57.45;101259.25;5049941;28;20036;-65
2023/09/01 00:54:12;;;;;;;0.10;0.10;;;;;;;21.61;57.02;101261.16;5049862;28;20044;-65
2023/09/01 00:56:38;;;;;;;0.10;0.10;;;;;;;21.62;57.19;101257.31;5049707;28;20036;-66
2023/09/01 00:59:04;;;;;;;0.10;0.10;;;;;;;21.53;57.41;101253.56;5050199;28;20029;-66
2023/09/01 01:01:30;;;;;;;0.10;0.10;;;;;;;21.43;57.69;101261.84;5049452;28;20044;-64
2023/09/01 01:03:55;;;;;;;0.10;0.10;;;;;;;21.47;57.31;101260.19;5048214;28;20041;-64
2023/09/01 01:07:08;;;;;;;0.15;0.15;;;;;;;21.58;57.15;101259.00;5049630;28;20036;-65
2023/09/01 01:09:48;;;;;;;0.10;0.10;;;;;;;21.53;57.68;101250.84;4987633;28;20458;-64
2023/09/01 01:12:36;;;;;;;0.10;0.10;;;;;;;21.47;57.75;101255.53;4985539;28;20069;-65
2023/09/01 01:15:09;;;;;;;0.20;0.20;;;;;;;21.42;57.62;101260.25;4967304;28;20045;-64
2023/09/01 01:17:39;;;;;;;0.10;0.10;;;;;;;21.42;57.56;101252.88;4968002;28;20046;-65
2023/09/01 01:20:16;;;;;;;0.20;0.20;;;;;;;21.53;57.50;101254.38;4968487;28;20230;-65
2023/09/01 01:22:48;;;;;;;0.10;0.10;;;;;;;21.29;57.40;101247.22;4967797;28;20133;-64
2023/09/01 01:25:13;;;;;;;0.10;0.10;;;;;;;21.42;57.63;101249.31;4967639;28;20553;-65
2023/09/01 01:27:41;;;;;;;0.10;0.10;;;;;;;21.36;57.89;101237.59;4967846;28;20043;-64
2023/09/01 01:30:07;;;;;;;0.10;0.10;;;;;;;21.25;58.54;101240.69;4967634;28;20071;-64
2023/09/01 01:32:34;;;;;;;0.10;0.10;;;;;;;21.34;57.52;101247.19;4967349;28;20053;-65
2023/09/01 01:35:15;;;;;;;0.20;0.20;;;;;;;21.33;57.15;101242.81;4968364;28;20043;-65
2023/09/01 01:37:52;;;;;;;;;;;;;;;21.55;56.50;101241.25;4968471;28;20039;-64
2023/09/01 01:40:20;;;;;;;0.10;0.10;;;;;;;21.23;57.81;101234.72;4967798;28;19929;-64
2023/09/01 01:42:48;;;;;;;0.10;0.10;;;;;;;21.18;57.50;101246.50;4967521;28;20054;-64
2023/09/01 01:45:20;;;;;;;0.10;0.10;;;;;;;21.32;56.90;101246.66;4980348;28;20036;-65
2023/09/01 01:47:47;;;;;;;0.10;0.10;;;;;;;21.30;57.31;101244.22;5048716;28;20033;-65
2023/09/01 01:50:13;;;;;;;0.10;0.10;;;;;;;21.10;57.69;101243.53;5048672;28;20396;-65
2023/09/01 01:52:38;;;;;;;0.20;0.20;;;;;;;21.14;57.23;101247.34;5049438;28;20087;-65
2023/09/01 01:55:07;;;;;;;0.15;0.15;;;;;;;20.91;57.75;101240.66;5048778;28;20409;-65
2023/09/01 01:57:36;;;;;;;0.10;0.10;;;;;;;20.98;57.64;101243.88;5048767;28;20033;-64
2023/09/01 02:00:03;;;;;;;0.20;0.20;;;;;;;20.80;58.60;101255.47;5049041;28;20052;-65
2023/09/01 02:02:29;;;;;;;0.10;0.10;;;;;;;20.84;58.26;101240.97;5048735;28;20049;-65
2023/09/01 02:04:54;;;;;;;0.10;0.10;;;;;;;20.96;58.21;101235.16;5049084;28;20033;-64
2023/09/01 02:07:19;;;;;;;0.17;0.17;;;;;;;20.96;57.57;101238.69;5048736;28;20037;-65
2023/09/01 02:09:45;;;;;;;0.10;0.10;;;;;;;20.94;57.69;101229.16;5044971;28;20091;-65
2023/09/01 02:12:10;;;;;;;0.10;0.10;;;;;;;20.94;57.85;101232.72;5048876;28;20489;-65
2023/09/01 02:14:36;;;;;;;0.10;0.10;;;;;;;20.74;58.43;101242.94;5048399;28;20109;-65
2023/09/01 02:17:03;;;;;;;0.10;0.10;;;;;;;20.93;57.81;101243.94;5048855;28;20021;-66
2023/09/01 02:19:28;;;;;;;0.10;0.10;;;;;;;21.05;57.17;101254.53;5048171;28;20045;-65
2023/09/01 02:21:54;;;;;;;0.10;0.10;;;;;;;20.97;57.70;101258.66;5048417;28;20094;-65
2023/09/01 02:24:19;;;;;;;0.10;0.10;;;;;;;20.80;57.22;101258.19;5048515;28;20041;-65
2023/09/01 02:26:44;;;;;;;0.10;0.10;;;;;;;20.86;57.49;101254.34;5052066;28;20095;-65
2023/09/01 02:29:10;;;;;;;0.17;0.17;;;;;;;20.72;57.87;101253.31;5046126;28;20040;-65
2023/09/01 02:31:35;;;;;;;0.10;0.10;;;;;;;20.79;57.55;101245.66;5053212;28;20013;-65
2023/09/01 02:34:04;;;;;;;0.10;0.10;;;;;;;20.69;57.55;101249.28;5052183;28;20520;-65
2023/09/01 02:36:34;;;;;;;0.10;0.10;;;;;;;20.65;57.93;101245.47;5034693;28;20053;-65
2023/09/01 02:39:01;;;;;;;0.10;0.10;;;;;;;20.64;57.60;101253.91;5053330;28;20045;-65
2023/09/01 02:41:28;;;;;;;0.10;0.10;;;;;;;20.62;57.44;101253.38;5053278;28;20510;-64
2023/09/01 02:43:53;;;;;;;0.17;0.17;;;;;;;20.42;58.49;101253.50;5051187;28;20028;-64
2023/09/01 02:46:20;;;;;;;0.10;0.10;;;;;;;20.44;58.35;101252.09;5073337;28;20036;-65
2023/09/01 02:48:45;;;;;;;0.20;0.20;;;;;;;20.32;60.09;101254.38;5073286;28;20036;-65
2023/09/01 02:51:11;;;;;;;0.10;0.10;;;;;;;20.47;58.46;101251.56;5073454;28;20407;-65
2023/09/01 02:53:37;;;;;;;0.10;0.10;;;;;;;20.55;58.30;101252.88;5073101;28;20036;-64
2023/09/01 02:56:03;;;;;;;0.20;0.20;;;;;;;20.53;58.57;101252.34;5055515;28;20044;-66
2023/09/01 02:58:29;;;;;;;0.20;0.20;;;;;;;20.60;58.47;101252.88;5073112;28;20044;-65
2023/09/01 03:00:55;;;;;;;0.10;0.10;;;;;;;20.40;58.92;101251.03;5072808;28;20036;-64
2023/09/01 03:03:22;;;;;;;0.10;0.10;;;;;;;20.42;58.63;101250.78;5072756;28;20060;-64
2023/09/01 03:05:49;;;;;;;0.20;0.20;;;;;;;20.24;59.02;101248.66;5041456;28;20490;-65
2023/09/01 03:08:15;;;;;;;0.10;0.10;;;;;;;20.34;58.30;101248.63;5052673;28;20082;-65
2023/09/01 03:10:41;;;;;;;0.20;0.20;;;;;;;20.29;58.18;101248.63;5053510;28;20040;-64
2023/09/01 03:13:06;;;;;;;0.10;0.10;;;;;;;20.30;58.66;101244.81;5052886;28;20448;-65
2023/09/01 03:15:32;;;;;;;0.10;0.10;;;;;;;20.21;58.94;101250.03;5060630;28;20037;-65
2023/09/01 03:17:57;;;;;;;0.10;0.10;;;;;;;20.11;59.32;101245.41;5072617;28;20039;-65
2023/09/01 03:20:24;;;;;;;0.20;0.20;;;;;;;20.06;59.80;101239.97;5073058;28;20696;-64
2023/09/01 03:22:49;;;;;;;0.10;0.10;;;;;;;20.09;59.75;101236.69;5073439;28;20021;-64
2023/09/01 03:25:16;;;;;;;0.10;0.10;;;;;;;20.30;58.76;101239.38;5055963;28;20064;-65
2023/09/01 03:27:41;;;;;;;0.10;0.10;;;;;;;20.40;58.31;101237.38;5052852;28;20029;-65
2023/09/01 03:30:07;;;;;;;0.10;0.10;;;;;;;20.41;57.96;101240.94;5048155;28;20114;-64
2023/09/01 03:32:36;;;;;;;0.20;0.20;;;;;;;20.38;58.13;101250.53;5052272;28;20044;-64
2023/09/01 03:35:02;;;;;;;0.20;0.20;;;;;;;20.21;58.37;101250.03;5052884;28;20032;-65
2023/09/01 03:37:27;;;;;;;0.15;0.15;;;;;;;20.17;58.26;101248.13;5051408;28;20033;-64
2023/09/01 03:39:53;;;;;;;0.10;0.10;;;;;;;20.21;58.34;101244.56;5052471;28;20064;-65
2023/09/01 03:42:18;;;;;;;0.20;0.20;;;;;;;20.03;58.73;101239.69;5052481;28;20053;-65
2023/09/01 03:44:43;;;;;;;0.10;0.10;;;;;;;20.01;59.02;101242.69;5048254;28;20040;-64
2023/09/01 03:47:09;;;;;;;0.10;0.10;;;;;;;20.10;58.79;101237.50;5052151;28;20465;-64
2023/09/01 03:49:35;;;;;;;0.10;0.10;;;;;;;20.04;59.64;101241.34;5052619;28;20727;-65
2023/09/01 03:52:01;;;;;;;0.10;0.10;;;;;;;19.97;59.54;101243.53;5052080;28;20037;-65
2023/09/01 03:54:26;;;;;;;0.20;0.20;;;;;;;19.94;59.90;101244.91;5052059;28;20052;-65
2023/09/01 03:56:52;;;;;;;0.10;0.10;;;;;;;20.07;59.21;101238.03;5052106;28;20060;-65
2023/09/01 03:59:18;;;;;;;0.20;0.20;;;;;;;19.96;59.17;101240.00;5052029;28;20029;-66
2023/09/01 04:01:44;;;;;;;0.10;0.10;;;;;;;19.99;59.55;101244.88;5041399;28;20029;-64
2023/09/01 04:04:10;;;;;;;0.20;0.20;;;;;;;19.95;59.08;101246.53;5051629;28;20053;-65
2023/09/01 04:06:36;;;;;;;0.10;0.10;;;;;;;19.99;59.42;101250.34;5047822;28;20758;-64
2023/09/01 04:09:01;;;;;;;0.20;0.20;;;;;;;19.82;58.76;101244.41;5037293;28;20043;-65
2023/09/01 04:11:26;;;;;;;0.10;0.10;;;;;;;19.89;59.40;101255.81;5052395;28;20021;-64
2023/09/01 04:13:52;;;;;;;0.10;0.10;;;;;;;19.92;59.05;101249.00;5051928;28;20052;-65
2023/09/01 04:16:17;;;;;;;0.20;0.20;;;;;;;19.97;59.01;101246.25;5051533;28;20056;-64
2023/09/01 04:18:42;;;;;;;0.15;0.15;;;;;;;19.83;59.22;101256.94;5032985;28;20477;-64
2023/09/01 04:21:08;;;;;;;0.10;0.10;;;;;;;19.76;59.61;101250.97;5051355;28;20045;-65
2023/09/01 04:23:33;;;;;;;0.20;0.20;;;;;;;19.75;59.72;101248.50;5051815;28;20043;-65
2023/09/01 04:26:00;;;;;;;0.17;0.17;;;;;;;19.74;59.64;101249.59;5052182;28;20025;-65
2023/09/01 04:28:26;;;;;;;0.15;0.15;;;;;;;19.64;60.15;101250.44;5051566;28;20069;-65
2023/09/01 04:30:51;;;;;;;0.20;0.20;;;;;;;19.68;60.05;101250.69;5066002;28;20041;-64
2023/09/01 04:33:17;;;;;;;0.10;0.10;;;;;;;19.59;60.74;101264.09;5051213;28;20033;-65
2023/09/01 04:35:43;;;;;;;0.10;0.10;;;;;;;19.78;59.68;101256.13;5051413;28;20048;-65
2023/09/01 04:38:08;;;;;;;0.10;0.10;;;;;;;19.85;59.73;101254.75;5051259;28;20392;-65
2023/09/01 04:40:34;;;;;;;0.15;0.15;;;;;;;19.90;59.78;101253.91;5051795;28;20032;-64
2023/09/01 04:42:59;;;;;;;0.20;0.20;;;;;;;19.80;60.00;101259.41;5033040;28;20049;-64
2023/09/01 04:45:24;;;;;;;0.20;0.20;;;;;;;19.99;59.52;101257.72;5047458;28;20028;-64
2023/09/01 04:47:51;;;;;;;0.13;0.13;;;;;;;19.90;60.02;101259.38;5047436;28;20028;-64
2023/09/01 04:50:16;;;;;;;0.20;0.20;;;;;;;20.06;59.52;101252.78;5045453;28;20025;-65
2023/09/01 04:52:41;;;;;;;0.10;0.10;;;;;;;20.18;59.78;101250.56;5047421;28;20020;-64
2023/09/01 04:55:08;;;;;;;0.20;0.20;;;;;;;20.07;60.31;101247.06;5047411;28;20037;-64
2023/09/01 04:57:34;;;;;;;0.20;0.20;;;;;;;20.24;60.00;101243.22;5047452;28;20136;-65
2023/09/01 04:59:59;;;;;;;0.10;0.10;;;;;;;20.30;60.01;101253.84;5047465;28;20776;-64
2023/09/01 05:02:25;;;;;;;0.17;0.17;;;;;;;20.48;59.88;101258.66;5047117;28;20024;-65
2023/09/01 05:04:51;;;;;;;0.20;0.20;;;;;;;20.55;59.95;101263.81;5047721;28;20013;-65
2023/09/01 05:07:16;;;;;;;0.20;0.20;;;;;;;20.51;60.37;101252.63;5048458;28;20094;-64
2023/09/01 05:09:42;;;;;;;0.20;0.20;;;;;;;20.47;60.70;101259.75;5050335;28;20445;-64
2023/09/01 05:12:07;;;;;;;0.10;0.10;;;;;;;20.67;59.91;101262.38;5049433;28;20037;-64
2023/09/01 05:14:33;;;;;;;0.10;0.10;;;;;;;20.65;59.75;101267.31;5050453;28;20385;-64
2023/09/01 05:16:58;;;;;;;0.20;0.20;;;;;;;20.78;59.96;101263.94;5042392;28;20028;-66
2023/09/01 05:19:23;;;;;;;0.13;0.13;;;;;;;20.77;59.96;101262.34;5050425;28;20094;-65
2023/09/01 05:21:49;;;;;;;0.10;0.10;;;;;;;20.78;59.95;101260.41;5032216;28;20052;-65
2023/09/01 05:24:14;;;;;;;0.20;0.20;;;;;;;20.78;60.70;101265.84;5050295;28;20041;-65
2023/09/01 05:26:40;;;;;;;0.10;0.10;;;;;;;20.90;60.01;101271.81;5050191;28;20033;-64
2023/09/01 05:29:06;;;;;;;0.20;0.20;;;;;;;20.70;60.21;101278.19;5049970;28;20108;-64
2023/09/01 05:31:31;;;;;;;0.10;0.10;;;;;;;20.93;59.85;101272.03;5049540;28;20029;-65
2023/09/01 05:33:57;;;;;;;0.10;0.10;;;;;;;21.20;57.96;101270.81;5056046;28;20044;-65
2023/09/01 05:36:22;;;;;;;0.20;0.20;;;;;;;21.13;58.94;101270.31;5057956;28;20025;-64
2023/09/01 05:38:47;;;;;;;0.20;0.20;;;;;;;20.99;59.50;101276.38;5060253;28;20599;-65
2023/09/01 05:41:14;;;;;;;0.10;0.10;;;;;;;21.09;59.27;101272.78;5059476;28;20040;-64
2023/09/01 05:43:39;;;;;;;0.20;0.20;;;;;;;21.22;58.97;101282.28;5060507;28;20041;-65
2023/09/01 05:46:05;;;;;;;0.10;0.10;;;;;;;21.25;59.20;101273.50;5051148;28;20393;-65
2023/09/01 05:48:30;;;;;;;0.10;0.10;;;;;;;21.09;59.96;101283.72;5049979;28;20056;-65
2023/09/01 05:50:55;;;;;;;0.10;0.10;;;;;;;21.23;59.64;101273.78;5049858;28;20048;-65
2023/09/01 05:53:21;;;;;;;0.13;0.13;;;;;;;21.36;59.75;101275.88;5049801;28;20087;-64
2023/09/01 05:55:47;;;;;;;0.10;0.10;;;;;;;21.63;59.15;101276.19;5050305;28;20060;-65
2023/09/01 05:58:12;;;;;;;0.10;0.10;;;;;;;21.76;58.92;101275.50;5031734;28;20087;-65
2023/09/01 06:00:38;;;;;;;0.20;0.20;;;;;;;21.82;58.61;101277.13;5049335;28;20033;-64
2023/09/01 06:03:04;;;;;;;0.10;0.10;;;;;;;21.87;58.33;101280.91;5049711;28;20029;-64
2023/09/01 06:05:30;;;;;;;0.10;0.10;;;;;;;21.95;58.06;101286.56;5067742;28;20089;-67
2023/09/01 06:07:55;;;;;;;0.10;0.10;;;;;;;21.93;58.24;101277.00;5070153;28;20097;-64
2023/09/01 06:10:21;;;;;;;0.10;0.10;;;;;;;21.95;58.67;101283.00;5069741;28;20032;-66
2023/09/01 06:12:46;;;;;;;0.10;0.10;;;;;;;21.97;58.40;101278.06;5063129;28;20045;-65
2023/09/01 06:15:12;;;;;;;0.10;0.10;;;;;;;22.06;57.72;101273.56;5049456;28;20056;-65
2023/09/01 06:17:37;;;;;;;0.10;0.10;;;;;;;22.16;57.91;101268.81;5049533;28;20435;-65
2023/09/01 06:20:06;;;;;;;0.10;0.10;;;;;;;22.22;58.04;101277.78;5032331;28;20096;-64
2023/09/01 06:22:35;;;;;;;0.10;0.10;;;;;;;;;;5049499;28;20029;-66
2023/09/01 06:25:03;;;;;;;0.10;0.10;;;;;;;22.10;57.76;101280.09;5049494;28;20099;-64
2023/09/01 06:27:28;;;;;;;0.10;0.10;;;;;;;22.17;57.67;101281.38;5049603;28;20041;-66
2023/09/01 06:29:56;;;;;;;0.10;0.10;;;;;;;22.32;57.77;101275.75;5049372;28;20619;-65
2023/09/01 06:32:22;;;;;;;0.10;0.10;;;;;;;22.42;58.06;101283.84;5049362;28;20025;-64
2023/09/01 06:34:47;;;;;;;0.10;0.10;;;;;;;22.59;57.30;101284.19;5050168;28;20412;-65
2023/09/01 06:37:12;;;;;;;0.10;0.10;;;;;;;22.70;57.29;101279.41;5049348;28;20397;-66
2023/09/01 06:39:38;;;;;;;0.10;0.10;;;;;;;22.55;58.04;101280.38;5049391;28;20033;-65
2023/09/01 06:42:03;;;;;;;0.10;0.10;;;;;;;22.71;57.01;101275.53;5049169;28;20045;-65
2023/09/01 06:44:29;;;;;;;0.10;0.10;;;;;;;22.69;56.85;101277.75;5049613;28;20087;-65
2023/09/01 06:46:54;;;;;;;0.10;0.10;;;;;;;22.64;57.57;101283.31;5048330;28;20495;-65
2023/09/01 06:49:20;;;;;;;0.10;0.10;;;;;;;22.60;57.96;101280.31;5047767;28;20107;-65
2023/09/01 06:51:45;;;;;;;0.08;0.08;;;;;;;22.86;57.42;101271.78;5047441;28;20041;-64
2023/09/01 06:54:10;;;;;;;0.10;0.10;;;;;;;22.21;58.10;101271.47;5049160;28;20401;-64
2023/09/01 06:56:36;;;;;;;0.00;0.00;;;;;;;22.30;59.48;101277.97;5049227;28;20086;-66
2023/09/01 06:59:01;;;;;;;0.10;0.10;;;;;;;22.94;57.23;101276.59;5049760;28;20025;-66
2023/09/01 07:01:27;;;;;;;0.10;0.10;;;;;;;23.18;56.59;101272.63;5046215;28;20044;-66
2023/09/01 07:03:53;;;;;;;0.10;0.10;;;;;;;23.29;55.97;101276.84;5069207;28;20396;-65
2023/09/01 07:06:19;;;;;;;0.10;0.10;;;;;;;23.22;57.13;101278.34;5069299;28;20090;-65
2023/09/01 07:08:44;;;;;;;0.10;0.10;;;;;;;23.45;55.70;101283.72;5065091;28;20037;-65
2023/09/01 07:11:11;;;;;;;0.10;0.10;;;;;;;23.49;55.72;101278.44;5048971;28;20025;-65
2023/09/01 07:13:36;;;;;;;0.10;0.10;;;;;;;23.50;55.67;101280.09;5034315;28;20119;-65
2023/09/01 07:16:03;;;;;;;0.10;0.10;;;;;;;23.54;56.18;101284.69;5052643;28;20111;-64
2023/09/01 07:18:29;;;;;;;0.10;0.10;;;;;;;23.38;55.78;101283.31;5052566;28;20044;-66
2023/09/01 07:20:58;;;;;;;0.00;0.00;;;;;;;23.57;56.04;101279.72;5052756;28;20473;-65
2023/09/01 07:23:24;;;;;;;0.00;0.00;;;;;;;23.58;55.94;101279.41;5053082;28;20389;-65
2023/09/01 07:25:49;;;;;;;0.05;0.05;;;;;;;23.48;55.80;101268.63;5052746;28;20029;-65
2023/09/01 07:28:15;;;;;;;0.10;0.10;;;;;;;23.53;56.34;101277.56;5052636;28;20067;-65
2023/09/01 07:30:40;;;;;;;0.00;0.00;;;;;;;23.78;55.24;101279.06;5048126;28;20033;-66
2023/09/01 07:33:06;;;;;;;0.10;0.10;;;;;;;23.91;55.29;101280.19;5052094;28;20048;-65
2023/09/01 07:35:31;;;;;;;0.10;0.10;;;;;;;23.61;55.66;101278.78;5052327;28;20087;-66
2023/09/01 07:37:57;;;;;;;0.10;0.10;;;;;;;23.74;55.77;101282.69;5052848;28;20036;-66
2023/09/01 07:40:23;;;;;;;0.10;0.10;;;;;;;23.82;55.44;101282.00;5052257;28;20477;-64
2023/09/01 07:42:49;;;;;;;0.10;0.10;;;;;;;23.57;56.73;101287.97;5052050;28;20049;-65
2023/09/01 07:45:14;;;;;;;0.10;0.10;;;;;;;23.96;55.40;101296.56;5052097;28;20124;-66
2023/09/01 07:47:40;;;;;;;0.00;0.00;;;;;;;23.88;55.34;101286.28;5044196;28;20060;-65
2023/09/01 07:50:06;;;;;;;0.00;0.00;;;;;;;23.78;55.87;101287.28;5052574;28;20028;-65
2023/09/01 07:52:32;;;;;;;0.10;0.10;;;;;;;23.94;55.57;101285.09;5051934;28;20056;-64
2023/09/01 07:54:58;;;;;;;0.10;0.10;;;;;;;24.17;54.99;101292.34;5051960;28;20040;-65
2023/09/01 07:57:23;;;;;;;0.10;0.10;;;;;;;23.88;55.68;101287.09;5051771;28;20048;-65
2023/09/01 07:59:48;;;;;;;0.10;0.10;;;;;;;23.88;55.67;101289.81;5028841;28;20032;-65
2023/09/01 08:02:14;;;;;;;0.10;0.10;;;;;;;24.11;54.88;101290.81;5052134;28;20109;-66
2023/09/01 08:04:39;;;;;;;0.00;0.00;;;;;;;24.11;54.83;101291.63;5050888;28;20230;-65
2023/09/01 08:07:05;;;;;;;0.00;0.00;;;;;;;24.12;55.18;101297.91;5023664;28;20140;-65
2023/09/01 08:09:30;;;;;;;0.08;0.00;;;;;;;24.10;55.04;101294.66;5043355;28;20056;-65
2023/09/01 08:11:55;;;;;;;0.10;0.10;;;;;;;24.19;55.74;101307.41;5051894;28;20029;-65
2023/09/01 08:14:21;;;;;;;0.10;0.10;;;;;;;24.52;54.67;101308.09;5051667;28;20033;-65
2023/09/01 08:16:47;;;;;;;0.00;0.00;;;;;;;24.05;55.29;101309.31;5052052;28;20393;-66
2023/09/01 08:19:13;;;;;;;0.10;0.10;;;;;;;24.06;55.38;101305.44;5051396;28;20095;-66
2023/09/01 08:21:38;;;;;;;0.00;0.00;;;;;;;24.02;55.72;101304.44;5051503;28;20037;-66
2023/09/01 08:24:04;;;;;;;0.00;0.00;;;;;;;24.52;54.40;101301.78;5051098;28;20033;-66
2023/09/01 08:26:52;;;;;;;0.10;0.10;;;;;;;24.47;54.38;101308.19;5051407;28;20033;-64
2023/09/01 08:29:17;;;;;;;0.10;0.10;;;;;;;24.42;54.30;101305.56;5041507;28;20036;-66
2023/09/01 08:31:42;;;;;;;0.05;0.05;;;;;;;24.54;54.49;101305.06;5052125;28;20029;-65
2023/09/01 08:34:10;;;;;;;0.10;0.10;;;;;;;24.59;54.58;101304.97;5051062;28;20335;-66
2023/09/01 08:36:37;;;;;;;0.10;0.10;;;;;;;24.68;54.22;101303.09;5051258;28;20040;-65
2023/09/01 08:39:03;;;;;;;0.08;0.08;;;;;;;24.49;55.22;101296.94;5051153;28;20059;-65
2023/09/01 08:41:29;;;;;;;0.00;0.00;;;;;;;24.41;55.00;101293.75;5050711;28;20112;-65
2023/09/01 08:44:01;;;;;;;0.10;0.10;;;;;;;24.57;54.20;101301.69;5052924;28;20108;-65
2023/09/01 08:46:29;;;;;;;0.00;0.00;;;;;;;24.93;54.63;101303.38;5047203;28;20071;-66
2023/09/01 08:48:55;;;;;;;0.00;0.00;;;;;;;25.42;52.83;101301.69;5032656;28;20128;-66
2023/09/01 08:51:21;;;;;;;0.00;0.00;;;;;;;24.39;54.85;101306.97;5041039;28;20120;-66
2023/09/01 08:53:48;;;;;;;0.00;0.00;;;;;;;24.57;54.42;101297.00;5039438;28;20063;-64
2023/09/01 08:56:14;;;;;;;0.10;0.10;;;;;;;24.93;53.54;101300.63;5050861;28;20024;-65
2023/09/01 08:58:40;;;;;;;0.10;0.10;;;;;;;25.29;52.98;101295.13;5051584;28;20021;-65
2023/09/01 09:01:06;;;;;;;0.00;0.00;;;;;;;25.10;53.07;101300.78;5047889;28;20030;-66
2023/09/01 09:03:32;;;;;;;0.00;0.00;;;;;;;25.63;51.93;101289.06;5030736;28;20022;-66
2023/09/01 09:05:58;;;;;;;0.00;0.00;;;;;;;25.47;51.84;101296.09;5030672;28;20625;-66
2023/09/01 09:08:24;;;;;;;0.00;0.00;;;;;;;25.55;50.92;101298.09;5030649;28;20029;-66
2023/09/01 09:10:49;;;;;;;0.00;0.00;;;;;;;25.36;51.26;101301.00;5031114;28;20025;-66
2023/09/01 09:13:31;;;;;;;0.00;0.00;;;;;;;25.66;50.96;101303.03;5030616;28;20087;-65
2023/09/01 09:16:15;;;;;;;0.00;0.00;;;;;;;25.60;50.58;101296.03;5030721;28;20137;-65
2023/09/01 09:18:43;;;;;;;0.00;0.00;;;;;;;25.35;51.88;101298.56;5030594;28;20044;-66
2023/09/01 09:21:22;;;;;;;0.08;0.08;;;;;;;25.62;51.31;101306.72;5030446;28;20040;-66
2023/09/01 09:23:48;;;;;;;0.00;0.00;;;;;;;25.75;50.94;101292.84;5030479;28;20064;-66
2023/09/01 09:26:13;;;;;;;0.00;0.00;;;;;;;25.56;51.72;101297.78;5030447;28;20088;-65
2023/09/01 09:28:39;;;;;;;0.00;0.00;;;;;;;25.27;52.07;101305.63;5030899;28;20032;-66
2023/09/01 09:31:05;;;;;;;0.00;0.00;;;;;;;24.96;53.23;101307.47;5030270;28;20123;-65
2023/09/01 09:33:32;;;;;;;0.00;0.00;;;;;;;25.03;52.73;101316.09;5030072;28;20141;-67
2023/09/01 09:35:58;;;;;;;0.00;0.00;;;;;;;25.66;51.36;101304.94;5029716;28;20129;-65
2023/09/01 09:38:38;;;;;;;0.00;0.00;;;;;;;24.72;53.03;101306.88;5029888;28;20111;-66
2023/09/01 09:41:03;;;;;;;0.00;0.00;;;;;;;25.51;51.60;101313.59;5030700;28;20028;-66
2023/09/01 09:43:41;;;;;;;0.00;0.00;;;;;;;25.55;51.32;101317.34;5029683;28;20049;-65
2023/09/01 09:46:06;;;;;;;0.00;0.00;;;;;;;25.56;51.71;101321.72;5029940;28;20037;-65
2023/09/01 09:48:32;;;;;;;0.00;0.00;;;;;;;25.91;50.98;101313.38;5029803;28;20040;-65
2023/09/01 09:50:58;;;;;;;0.00;0.00;;;;;;;25.70;51.59;101311.47;5029842;28;20520;-66
2023/09/01 09:53:25;;;;;;;0.00;0.00;;;;;;;25.98;50.75;101321.97;5045032;28;20029;-66
2023/09/01 09:55:52;;;;;;;0.00;0.00;;;;;;;25.60;51.43;101323.53;5030487;28;20115;-64
2023/09/01 09:58:18;;;;;;;0.00;0.00;;;;;;;26.06;50.68;101321.25;5029817;28;20121;-65
2023/09/01 10:01:02;;;;;;;0.00;0.00;;;;;;;25.76;51.10;101329.47;5029809;28;20037;-66
2023/09/01 10:03:31;;;;;;;0.00;0.00;;;;;;;25.71;51.45;101335.13;5029731;28;20061;-65
2023/09/01 10:05:58;;;;;;;0.00;0.00;;;;;;;25.80;51.04;101339.56;5030093;28;20569;-64
2023/09/01 10:08:24;;;;;;;0.00;0.00;;;;;;;25.77;51.18;101337.41;5029922;28;20033;-65
2023/09/01 10:10:50;;;;;;;0.00;0.00;;;;;;;25.98;51.31;101341.25;5030522;28;20526;-65
2023/09/01 10:13:16;;;;;;;0.00;0.00;;;;;;;26.27;49.85;101329.78;5029789;28;20041;-65
2023/09/01 10:15:42;;;;;;;0.00;0.00;;;;;;;25.79;51.26;101346.19;5029800;28;20048;-64
2023/09/01 10:18:08;;;;;;;0.00;0.00;;;;;;;26.19;50.58;101335.25;5029766;28;20129;-64
2023/09/01 10:20:36;;;;;;;0.00;0.00;;;;;;;25.91;51.58;101334.56;5029957;28;20398;-65
2023/09/01 10:23:03;;;;;;;0.00;0.00;;;;;;;26.07;50.87;101333.09;5030404;28;20082;-65
2023/09/01 10:25:29;;;;;;;0.00;0.00;;;;;;;26.17;50.21;101338.31;5029727;28;20512;-65
2023/09/01 10:28:01;;;;;;;0.00;0.00;;;;;;;26.20;50.79;101332.16;5029553;28;20033;-66
2023/09/01 10:30:31;;;;;;;0.00;0.00;;;;;;;26.27;50.55;101338.03;5029742;28;20042;-65
2023/09/01 10:33:11;;;;;;;0.00;0.00;;;;;;;26.23;50.21;101328.78;5029406;28;20034;-65
2023/09/01 10:35:41;;;;;;;0.00;0.00;;;;;;;26.43;50.60;101332.91;5029718;28;20029;-65
2023/09/01 10:38:21;;;;;;;0.00;0.00;;;;;;;26.42;50.34;101334.03;5029949;28;20124;-66
2023/09/01 10:40:47;;;;;;;0.00;0.00;;;;;;;26.00;51.23;101324.44;5046637;28;20531;-65
2023/09/01 10:43:13;;;;;;;0.00;0.00;;;;;;;25.86;52.18;101326.47;5048948;28;20049;-65
2023/09/01 10:45:39;;;;;;;0.00;0.00;;;;;;;26.44;50.62;101332.59;5052163;28;20037;-64
2023/09/01 10:48:11;;;;;;;0.00;0.00;;;;;;;25.94;50.48;101345.81;5052873;28;20037;-65
2023/09/01 10:50:39;;;;;;;0.00;0.00;;;;;;;26.43;50.06;101343.94;5053192;28;20087;-65
2023/09/01 10:53:30;;;;;;;0.00;0.00;;;;;;;26.18;50.80;101344.66;5053754;28;20053;-66
2023/09/01 10:56:10;;;;;;;0.00;0.00;;;;;;;26.55;50.04;101347.72;5033798;28;20068;-65
2023/09/01 10:58:55;;;;;;;0.00;0.00;;;;;;;26.27;49.36;101346.31;5033799;28;20045;-65
2023/09/01 11:01:33;;;;;;;0.00;0.00;;;;;;;26.21;50.19;101344.00;5033176;28;20389;-66
2023/09/01 11:04:16;;;;;;;0.00;0.00;;;;;;;26.42;49.96;101342.31;5033108;28;20033;-65
2023/09/01 11:06:57;;;;;;;0.00;0.00;;;;;;;26.13;50.93;101340.09;5033090;28;20033;-66
2023/09/01 11:09:23;;;;;;;0.00;0.00;;;;;;;26.02;51.28;101339.50;5032984;28;20042;-65
2023/09/01 11:11:53;;;;;;;0.00;0.00;;;;;;;26.59;50.22;101345.13;5032796;28;20041;-66
2023/09/01 11:14:20;;;;;;;0.00;0.00;;;;;;;26.93;49.33;101345.22;5033661;28;20141;-64
2023/09/01 11:16:46;;;;;;;0.00;0.00;;;;;;;26.82;48.77;101349.44;5053387;28;20045;-66
2023/09/01 11:19:11;;;;;;;0.00;0.00;;;;;;;26.56;49.42;101346.59;5052431;28;20070;-65
2023/09/01 11:21:37;;;;;;;0.00;0.00;;;;;;;26.76;48.90;101351.53;5052758;28;20086;-65
2023/09/01 11:24:03;;;;;;;0.00;0.00;;;;;;;26.59;49.92;101348.72;5052863;28;20356;-64
2023/09/01 11:26:29;;;;;;;0.00;0.00;;;;;;;26.59;49.83;101345.97;5053017;28;20040;-65